Time;durP1;ratioP1;P1;durP2;ratioP2;P2;SDS_P1;SDS_P2;PMS_P1;PMS_P2;Temp;Humidity;BMP_temperature;BMP_pressure;BME280_temperature;BME280_humidity;BME280_pressure;Samples;Min_cycle;Max_cycle;Signal;HPM_P1;HPM_P2
2023/04/26 00:02:12;;;;;;;8.63;5.63;;;11.80;99.90;;;;;;4974922;28;20488;-81
2023/04/26 00:04:38;;;;;;;10.20;5.55;;;11.80;99.90;;;;;;4973532;28;20078;-83
2023/04/26 00:07:05;;;;;;;5.90;4.93;;;11.80;99.90;;;;;;4974987;28;20045;-80
2023/04/26 00:09:31;;;;;;;7.93;5.68;;;11.70;99.90;;;;;;4974891;28;20025;-81
2023/04/26 00:11:57;;;;;;;8.40;4.40;;;11.70;99.90;;;;;;4975087;28;20382;-81
2023/04/26 00:14:23;;;;;;;8.70;5.00;;;11.70;99.90;;;;;;4974920;28;20105;-79
2023/04/26 00:16:49;;;;;;;8.25;4.72;;;11.70;99.90;;;;;;4974144;28;20105;-81
2023/04/26 00:19:16;;;;;;;6.88;5.10;;;11.70;99.90;;;;;;4974786;28;20506;-80
2023/04/26 00:21:42;;;;;;;6.18;5.00;;;11.70;99.90;;;;;;4974703;28;20037;-81
2023/04/26 00:24:08;;;;;;;7.05;5.72;;;11.80;99.90;;;;;;4973314;28;20496;-83
2023/04/26 00:26:35;;;;;;;10.93;6.05;;;11.70;99.90;;;;;;4974785;28;20048;-79
2023/04/26 00:29:03;;;;;;;7.50;4.80;;;11.80;99.90;;;;;;4982053;28;20065;-82
2023/04/26 00:31:29;;;;;;;9.35;5.80;;;11.80;99.90;;;;;;4981122;28;20026;-81
2023/04/26 00:33:55;;;;;;;6.88;5.20;;;11.80;99.90;;;;;;4974425;28;20514;-81
2023/04/26 00:36:21;;;;;;;7.57;5.55;;;11.70;99.90;;;;;;4978396;28;20051;-80
2023/04/26 00:38:47;;;;;;;7.30;4.25;;;11.60;99.90;;;;;;4979712;28;20041;-81
2023/04/26 00:41:13;;;;;;;11.30;5.60;;;11.60;99.90;;;;;;4984609;28;20053;-80
2023/04/26 00:43:39;;;;;;;8.77;5.65;;;11.60;99.90;;;;;;4981275;28;20054;-80
2023/04/26 00:46:07;;;;;;;6.80;5.30;;;11.50;99.90;;;;;;4980257;28;20039;-80
2023/04/26 00:48:35;;;;;;;7.22;5.65;;;11.60;99.90;;;;;;4980073;28;20027;-80
2023/04/26 00:51:01;;;;;;;8.77;6.03;;;11.50;99.90;;;;;;4974533;28;20031;-79
2023/04/26 00:53:27;;;;;;;6.53;5.90;;;11.60;99.90;;;;;;4967625;28;20026;-80
2023/04/26 00:55:53;;;;;;;8.65;5.40;;;11.50;99.90;;;;;;4977623;28;20069;-80
2023/04/26 00:58:19;;;;;;;6.15;5.13;;;11.60;99.90;;;;;;4984573;28;20480;-78
2023/04/26 01:00:45;;;;;;;7.72;5.20;;;11.60;99.90;;;;;;4974400;28;20031;-79
2023/04/26 01:03:11;;;;;;;8.05;5.80;;;11.60;99.90;;;;;;4974139;28;20023;-80
2023/04/26 01:05:37;;;;;;;7.25;4.72;;;11.60;99.90;;;;;;4977326;28;20047;-79
2023/04/26 01:08:04;;;;;;;7.30;5.00;;;11.60;99.90;;;;;;4975317;28;20035;-80
2023/04/26 01:10:31;;;;;;;7.50;5.80;;;11.60;99.90;;;;;;4957029;28;20023;-81
2023/04/26 01:12:58;;;;;;;7.55;6.28;;;11.60;99.90;;;;;;4973975;28;20019;-80
2023/04/26 01:15:27;;;;;;;8.32;6.43;;;11.60;99.90;;;;;;4974699;28;20058;-80
2023/04/26 01:17:53;;;;;;;7.82;6.32;;;11.60;99.90;;;;;;4980062;28;20031;-81
2023/04/26 01:20:19;;;;;;;10.75;6.93;;;11.70;99.90;;;;;;4980047;28;20049;-79
2023/04/26 01:22:45;;;;;;;8.48;6.50;;;11.70;99.90;;;;;;4986893;28;20407;-80
2023/04/26 01:25:12;;;;;;;9.10;6.93;;;11.70;99.90;;;;;;4977693;28;20038;-79
2023/04/26 01:27:38;;;;;;;7.65;6.00;;;11.60;99.90;;;;;;4976516;28;20488;-80
2023/04/26 01:30:05;;;;;;;6.15;5.03;;;11.60;99.90;;;;;;4982091;28;20118;-80
2023/04/26 01:32:31;;;;;;;8.40;7.10;;;11.60;99.90;;;;;;4984056;28;20491;-78
2023/04/26 01:34:57;;;;;;;10.80;6.80;;;11.60;99.90;;;;;;4973406;28;20055;-81
2023/04/26 01:37:23;;;;;;;9.82;7.03;;;11.60;99.90;;;;;;4974027;28;20023;-79
2023/04/26 01:39:49;;;;;;;11.13;6.77;;;11.50;99.90;;;;;;4972984;28;20018;-80
2023/04/26 01:42:15;;;;;;;8.65;7.32;;;11.50;99.90;;;;;;4973217;28;20026;-82
2023/04/26 01:44:41;;;;;;;8.73;6.13;;;11.50;99.90;;;;;;4974162;28;20025;-80
2023/04/26 01:47:07;;;;;;;7.80;6.20;;;11.50;99.90;;;;;;4977770;28;20118;-82
2023/04/26 01:49:33;;;;;;;8.57;5.82;;;11.50;99.90;;;;;;4976573;28;20440;-79
2023/04/26 01:52:00;;;;;;;7.82;6.30;;;11.40;99.90;;;;;;4959957;28;20046;-80
2023/04/26 01:54:26;;;;;;;7.70;5.68;;;11.40;99.90;;;;;;4978550;28;20030;-80
2023/04/26 01:56:52;;;;;;;6.97;6.10;;;11.40;99.90;;;;;;4981619;28;20031;-79
2023/04/26 01:59:18;;;;;;;9.05;6.53;;;11.40;99.90;;;;;;4978219;28;20476;-79
2023/04/26 02:01:44;;;;;;;9.38;6.60;;;11.50;99.90;;;;;;4977447;28;20472;-82
2023/04/26 02:04:10;;;;;;;12.05;7.47;;;11.40;99.90;;;;;;4960949;28;20050;-80
2023/04/26 02:06:41;;;;;;;8.93;7.53;;;11.40;99.90;;;;;;4979040;28;20031;-81
2023/04/26 02:09:08;;;;;;;8.18;7.30;;;11.40;99.90;;;;;;4959860;28;20019;-80
2023/04/26 02:11:34;;;;;;;7.90;6.57;;;11.40;99.90;;;;;;4959722;28;20033;-83
2023/04/26 02:14:01;;;;;;;11.65;7.00;;;11.50;99.90;;;;;;4977855;28;20019;-80
2023/04/26 02:16:27;;;;;;;12.40;7.80;;;11.50;99.90;;;;;;4977074;28;20114;-80
2023/04/26 02:18:53;;;;;;;8.52;7.18;;;11.40;99.90;;;;;;4977352;28;20050;-81
2023/04/26 02:21:21;;;;;;;12.25;8.88;;;11.40;99.90;;;;;;4977279;28;20460;-82
2023/04/26 02:23:47;;;;;;;9.10;6.97;;;11.40;99.90;;;;;;4978015;28;20026;-81
2023/04/26 02:26:13;;;;;;;9.93;7.97;;;11.40;99.90;;;;;;4976857;28;20039;-81
2023/04/26 02:28:40;;;;;;;8.38;7.03;;;11.30;99.90;;;;;;4978182;28;20473;-80
2023/04/26 02:31:06;;;;;;;9.37;7.40;;;11.20;99.90;;;;;;4976280;28;20034;-81
2023/04/26 02:33:33;;;;;;;9.10;7.70;;;11.20;99.90;;;;;;4979964;28;20480;-82
2023/04/26 02:36:03;;;;;;;10.70;8.10;;;11.20;99.90;;;;;;4989519;28;20498;-81
2023/04/26 02:38:29;;;;;;;8.10;6.78;;;11.10;99.90;;;;;;4976847;28;20069;-79
2023/04/26 02:40:59;;;;;;;9.48;7.90;;;11.10;99.90;;;;;;4993544;28;20027;-80
2023/04/26 02:43:25;;;;;;;9.98;7.65;;;11.00;99.90;;;;;;4989140;28;20122;-80
2023/04/26 02:45:51;;;;;;;12.00;8.32;;;11.00;99.90;;;;;;4978387;28;20022;-79
2023/04/26 02:48:17;;;;;;;11.50;8.98;;;11.00;99.90;;;;;;4986496;28;20389;-80
2023/04/26 02:50:43;;;;;;;13.48;9.88;;;11.00;99.90;;;;;;4976315;28;20031;-81
2023/04/26 02:53:09;;;;;;;10.30;8.35;;;11.00;99.90;;;;;;5002143;28;20081;-81
2023/04/26 02:55:37;;;;;;;7.07;5.25;;;11.00;99.90;;;;;;4990422;28;20032;-79
2023/04/26 02:58:02;;;;;;;11.70;9.15;;;11.00;99.90;;;;;;4984202;28;20042;-80
2023/04/26 03:00:28;;;;;;;11.65;8.63;;;11.00;99.90;;;;;;4978545;28;20085;-80
2023/04/26 03:02:55;;;;;;;14.10;9.48;;;11.00;99.90;;;;;;4976264;28;20527;-81
2023/04/26 03:05:21;;;;;;;11.48;9.00;;;11.00;99.90;;;;;;4976361;28;20043;-79
2023/04/26 03:07:47;;;;;;;12.82;10.05;;;11.10;99.90;;;;;;4976909;28;20114;-79
2023/04/26 03:10:13;;;;;;;13.35;9.70;;;11.10;99.90;;;;;;4977256;28;20493;-82
2023/04/26 03:12:39;;;;;;;10.70;8.40;;;11.20;99.90;;;;;;4981408;28;20030;-80
2023/04/26 03:15:05;;;;;;;13.32;9.52;;;11.20;99.90;;;;;;4973588;28;20050;-80
2023/04/26 03:17:31;;;;;;;10.77;9.35;;;11.10;99.90;;;;;;4969243;28;20027;-81
2023/04/26 03:19:57;;;;;;;12.18;9.55;;;11.10;99.90;;;;;;4976197;28;20035;-79
2023/04/26 03:22:23;;;;;;;13.30;9.93;;;11.00;99.90;;;;;;4986902;28;20026;-78
2023/04/26 03:24:49;;;;;;;12.10;9.63;;;11.00;99.90;;;;;;4978076;28;20026;-81
2023/04/26 03:27:14;;;;;;;11.68;9.35;;;11.00;99.90;;;;;;4984638;28;20092;-79
2023/04/26 03:29:40;;;;;;;10.07;8.30;;;11.00;99.90;;;;;;4980628;28;20033;-80
2023/04/26 03:32:06;;;;;;;12.70;8.82;;;11.00;99.90;;;;;;4975637;28;20065;-81
2023/04/26 03:34:32;;;;;;;10.70;7.97;;;11.00;99.90;;;;;;4975653;28;20530;-79
2023/04/26 03:36:58;;;;;;;9.80;7.80;;;11.00;99.90;;;;;;4975620;28;20027;-81
2023/04/26 03:39:24;;;;;;;11.45;8.00;;;10.90;99.90;;;;;;4958517;28;20113;-82
2023/04/26 03:41:49;;;;;;;9.60;8.50;;;10.90;99.90;;;;;;4976087;28;20023;-81
2023/04/26 03:44:15;;;;;;;10.88;8.38;;;10.90;99.90;;;;;;4976388;28;20058;-81
2023/04/26 03:46:42;;;;;;;11.15;8.55;;;10.90;99.90;;;;;;4971305;28;20038;-80
2023/04/26 03:49:07;;;;;;;12.48;8.90;;;11.00;99.90;;;;;;4957749;28;20026;-82
2023/04/26 03:51:33;;;;;;;10.93;8.93;;;11.00;99.90;;;;;;4975399;28;20026;-80
2023/04/26 03:53:59;;;;;;;11.10;9.00;;;11.00;99.90;;;;;;4987900;28;20029;-80
2023/04/26 03:56:25;;;;;;;11.77;9.18;;;11.00;99.90;;;;;;4975483;28;20041;-80
2023/04/26 03:58:51;;;;;;;15.05;10.93;;;11.00;99.90;;;;;;4977559;28;20019;-80
2023/04/26 04:01:17;;;;;;;11.38;9.38;;;11.10;99.90;;;;;;4965060;28;20459;-80
2023/04/26 04:03:43;;;;;;;10.05;8.27;;;11.00;99.90;;;;;;4978196;28;20443;-81
2023/04/26 04:06:09;;;;;;;11.85;9.60;;;11.00;99.90;;;;;;4977879;28;20047;-81
2023/04/26 04:08:35;;;;;;;10.32;9.20;;;11.10;99.90;;;;;;4988435;28;20045;-81
2023/04/26 04:11:00;;;;;;;11.93;9.48;;;11.00;99.90;;;;;;4979563;28;20089;-81
2023/04/26 04:13:26;;;;;;;9.85;8.82;;;11.10;99.90;;;;;;4976009;28;20092;-80
2023/04/26 04:15:52;;;;;;;14.25;9.57;;;11.10;99.90;;;;;;4975295;28;20657;-80
2023/04/26 04:18:18;;;;;;;13.70;9.55;;;11.10;99.90;;;;;;4975097;28;20453;-81
2023/04/26 04:20:44;;;;;;;12.23;9.77;;;11.10;99.90;;;;;;4974690;28;20026;-79
2023/04/26 04:23:10;;;;;;;11.20;10.00;;;11.10;99.90;;;;;;4974700;28;20038;-79
2023/04/26 04:25:37;;;;;;;10.82;9.75;;;11.10;99.90;;;;;;4956749;28;20031;-80
2023/04/26 04:28:03;;;;;;;11.95;9.18;;;11.10;99.90;;;;;;4973820;28;20038;-79
2023/04/26 04:30:29;;;;;;;13.80;10.07;;;11.10;99.90;;;;;;4974874;28;20023;-80
2023/04/26 04:32:58;;;;;;;14.98;8.32;;;11.20;99.90;;;;;;4978764;28;20069;-80
2023/04/26 04:35:27;;;;;;;10.38;8.20;;;11.20;99.90;;;;;;4978716;28;20029;-81
2023/04/26 04:37:55;;;;;;;11.15;8.57;;;11.10;99.90;;;;;;4981152;28;20054;-80
2023/04/26 04:40:21;;;;;;;13.30;8.95;;;11.20;99.90;;;;;;4958235;28;20423;-81
2023/04/26 04:42:48;;;;;;;9.23;7.65;;;11.30;99.90;;;;;;4973601;28;20120;-80
2023/04/26 04:45:14;;;;;;;9.73;7.22;;;11.40;99.90;;;;;;4973840;28;20129;-79
2023/04/26 04:47:40;;;;;;;10.25;7.25;;;11.30;99.90;;;;;;4973708;28;20022;-80
2023/04/26 04:50:06;;;;;;;7.95;6.03;;;11.40;99.90;;;;;;4974072;28;20027;-81
2023/04/26 04:52:32;;;;;;;8.70;5.97;;;11.40;99.90;;;;;;4976279;28;20030;-80
2023/04/26 04:54:59;;;;;;;9.63;6.28;;;11.30;99.90;;;;;;4984947;28;20057;-81
2023/04/26 04:57:26;;;;;;;8.55;5.80;;;11.30;99.90;;;;;;4989459;28;20027;-80
2023/04/26 04:59:52;;;;;;;7.18;5.45;;;11.30;99.90;;;;;;4974225;28;20027;-80
2023/04/26 05:02:18;;;;;;;5.88;5.25;;;11.30;99.90;;;;;;4974047;28;20031;-81
2023/04/26 05:04:44;;;;;;;6.38;5.45;;;11.40;99.90;;;;;;4959885;28;20047;-80
2023/04/26 05:07:11;;;;;;;7.47;5.25;;;11.40;99.90;;;;;;4974110;28;20083;-81
2023/04/26 05:09:37;;;;;;;7.53;5.10;;;11.40;99.90;;;;;;4973526;28;20025;-79
2023/04/26 05:12:03;;;;;;;8.02;5.18;;;11.40;99.90;;;;;;4973777;28;20038;-80
2023/04/26 05:14:30;;;;;;;5.35;4.03;;;11.40;99.90;;;;;;4974026;28;20027;-80
2023/04/26 05:16:56;;;;;;;7.60;4.65;;;11.50;99.90;;;;;;4973479;28;20058;-80
2023/04/26 05:19:22;;;;;;;6.22;4.97;;;11.50;99.90;;;;;;4973308;28;20436;-79
2023/04/26 05:21:47;;;;;;;5.72;4.95;;;11.50;99.90;;;;;;4967175;28;20035;-82
2023/04/26 05:24:13;;;;;;;5.53;4.10;;;11.60;99.90;;;;;;4967564;28;20033;-81
2023/04/26 05:26:39;;;;;;;6.95;5.13;;;11.60;99.90;;;;;;4962969;28;20035;-81
2023/04/26 05:29:05;;;;;;;4.55;4.13;;;11.70;99.90;;;;;;4965874;28;20054;-82
2023/04/26 05:31:31;;;;;;;5.22;3.92;;;11.70;99.90;;;;;;4970134;28;20391;-80
2023/04/26 05:33:57;;;;;;;8.38;3.95;;;11.70;99.90;;;;;;4971999;28;20441;-82
2023/04/26 05:36:23;;;;;;;6.30;3.60;;;11.80;99.90;;;;;;4976355;28;20040;-82
2023/04/26 05:38:49;;;;;;;4.47;3.97;;;11.80;99.90;;;;;;4975238;28;20027;-81
2023/04/26 05:41:15;;;;;;;4.72;4.13;;;11.80;99.90;;;;;;4973936;28;20042;-81
2023/04/26 05:43:41;;;;;;;4.80;3.53;;;11.90;99.90;;;;;;4973642;28;20783;-82
2023/04/26 05:46:07;;;;;;;5.90;4.15;;;11.80;99.90;;;;;;4981838;28;20195;-81
2023/04/26 05:48:33;;;;;;;3.95;3.55;;;11.90;99.90;;;;;;4982078;28;20089;-82
2023/04/26 05:50:59;;;;;;;4.05;2.92;;;11.90;99.90;;;;;;4973036;28;20061;-83
2023/04/26 05:53:25;;;;;;;5.05;2.97;;;11.80;99.90;;;;;;4972370;28;20023;-82
2023/04/26 05:55:50;;;;;;;3.83;3.17;;;11.80;99.90;;;;;;4970691;28;20480;-83
2023/04/26 05:58:16;;;;;;;2.90;2.60;;;11.90;99.90;;;;;;4958297;28;20086;-81
2023/04/26 06:00:42;;;;;;;5.07;2.55;;;12.00;99.90;;;;;;4971966;28;20035;-81
2023/04/26 06:03:08;;;;;;;4.30;2.90;;;12.00;99.90;;;;;;4955596;28;20028;-80
2023/04/26 06:05:37;;;;;;;3.72;2.95;;;12.10;99.90;;;;;;4958306;28;20043;-80
2023/04/26 06:08:04;;;;;;;2.75;2.38;;;12.20;99.90;;;;;;4957346;28;20460;-80
2023/04/26 06:10:30;;;;;;;5.72;2.65;;;12.10;99.90;;;;;;4961332;28;20049;-83
2023/04/26 06:12:55;;;;;;;5.15;2.97;;;12.10;99.90;;;;;;4961529;28;20037;-81
2023/04/26 06:15:21;;;;;;;3.65;2.47;;;12.00;99.90;;;;;;4970307;28;20027;-80
2023/04/26 06:17:47;;;;;;;3.33;2.35;;;12.10;99.90;;;;;;4972703;28;20086;-81
2023/04/26 06:20:13;;;;;;;3.42;2.92;;;12.10;99.90;;;;;;4969894;28;20069;-81
2023/04/26 06:22:39;;;;;;;3.78;2.55;;;12.20;99.90;;;;;;4981542;28;20102;-81
2023/04/26 06:25:06;;;;;;;4.90;3.38;;;12.20;99.90;;;;;;4957133;28;20023;-84
2023/04/26 06:27:31;;;;;;;5.33;2.70;;;12.20;99.90;;;;;;4966957;28;20468;-81
2023/04/26 06:29:57;;;;;;;4.70;2.53;;;12.30;99.90;;;;;;4969989;28;20039;-81
2023/04/26 06:32:23;;;;;;;2.95;2.60;;;12.30;99.90;;;;;;4972306;28;20022;-83
2023/04/26 06:34:49;;;;;;;3.90;2.30;;;12.30;99.90;;;;;;4958255;28;20022;-82
2023/04/26 06:37:15;;;;;;;2.88;2.60;;;12.40;99.90;;;;;;4974137;28;20023;-83
2023/04/26 06:39:41;;;;;;;3.67;2.30;;;12.50;99.90;;;;;;4967425;28;20034;-82
2023/04/26 06:42:07;;;;;;;3.53;2.85;;;12.50;99.90;;;;;;4965987;28;20433;-82
2023/04/26 06:44:33;;;;;;;4.80;2.78;;;12.60;99.90;;;;;;4975489;28;20035;-81
2023/04/26 06:46:59;;;;;;;3.70;3.20;;;12.70;99.90;;;;;;4977398;28;20031;-82
2023/04/26 06:49:25;;;;;;;3.30;2.47;;;12.70;99.90;;;;;;4963348;28;20099;-81
2023/04/26 06:51:51;;;;;;;3.45;2.55;;;12.60;99.90;;;;;;4977984;28;20034;-82
2023/04/26 06:54:18;;;;;;;3.30;3.00;;;12.60;99.90;;;;;;4982939;28;20041;-82
2023/04/26 06:56:45;;;;;;;4.85;3.08;;;12.60;99.90;;;;;;4987678;28;20061;-83
2023/04/26 06:59:10;;;;;;;4.28;3.10;;;12.60;99.90;;;;;;4981827;28;20050;-81
2023/04/26 07:01:38;;;;;;;3.75;2.47;;;12.60;99.90;;;;;;4984790;28;20784;-77
2023/04/26 07:04:11;;;;;;;4.72;2.30;;;12.70;99.90;;;;;;4977489;28;20073;-77
2023/04/26 07:06:38;;;;;;;5.90;2.90;;;12.70;99.90;;;;;;4977808;28;20518;-77
2023/04/26 07:09:04;;;;;;;4.15;2.28;;;12.60;99.90;;;;;;4976852;28;20034;-79
2023/04/26 07:11:30;;;;;;;3.70;2.63;;;12.60;99.90;;;;;;4974009;28;20027;-78
2023/04/26 07:13:56;;;;;;;4.85;2.90;;;12.60;99.90;;;;;;4975673;28;20022;-79
2023/04/26 07:16:22;;;;;;;6.57;3.05;;;12.70;99.90;;;;;;4976503;28;20034;-78
2023/04/26 07:18:48;;;;;;;4.45;2.80;;;12.70;99.90;;;;;;4975391;28;20568;-78
2023/04/26 07:21:15;;;;;;;4.20;3.58;;;12.80;99.90;;;;;;4975894;28;20027;-78
2023/04/26 07:23:41;;;;;;;4.75;3.15;;;12.80;99.90;;;;;;4975578;28;20019;-77
2023/04/26 07:26:09;;;;;;;6.57;3.10;;;12.80;99.90;;;;;;4977101;28;20043;-77
2023/04/26 07:28:35;;;;;;;5.45;3.28;;;12.80;99.90;;;;;;4980443;28;20140;-76
2023/04/26 07:31:00;;;;;;;6.13;3.10;;;12.80;99.90;;;;;;4975338;28;20050;-76
2023/04/26 07:33:27;;;;;;;4.30;3.55;;;12.70;99.90;;;;;;4957562;28;20081;-77
2023/04/26 07:35:57;;;;;;;5.72;3.88;;;12.70;99.90;;;;;;4975346;28;20057;-80
2023/04/26 07:38:23;;;;;;;5.38;3.28;;;12.80;99.90;;;;;;4968601;28;20435;-78
2023/04/26 07:40:49;;;;;;;5.10;3.92;;;12.90;99.90;;;;;;4964670;28;20023;-79
2023/04/26 07:43:16;;;;;;;7.25;3.83;;;12.80;99.90;;;;;;4966383;28;20029;-80
2023/04/26 07:45:42;;;;;;;6.30;4.32;;;12.80;99.90;;;;;;4965061;28;20023;-78
2023/04/26 07:48:07;;;;;;;5.40;3.90;;;12.80;99.90;;;;;;4964118;28;20039;-79
2023/04/26 07:50:33;;;;;;;4.90;3.72;;;12.80;99.90;;;;;;4973912;28;20472;-78
2023/04/26 07:52:59;;;;;;;3.80;3.45;;;12.90;99.90;;;;;;4974838;28;20034;-78
2023/04/26 07:55:25;;;;;;;6.20;3.58;;;12.90;99.90;;;;;;4974804;28;20030;-79
2023/04/26 07:57:51;;;;;;;4.53;3.90;;;12.90;99.90;;;;;;4972224;28;20101;-79
2023/04/26 08:00:17;;;;;;;4.88;3.70;;;12.80;99.90;;;;;;4975031;28;20018;-77
2023/04/26 08:02:47;;;;;;;4.05;3.65;;;12.90;99.90;;;;;;4975058;28;20050;-78
2023/04/26 08:05:13;;;;;;;7.60;3.90;;;12.90;99.90;;;;;;4975029;28;20061;-80
2023/04/26 08:07:40;;;;;;;7.22;3.60;;;13.00;99.90;;;;;;4974807;28;20039;-80
2023/04/26 08:10:07;;;;;;;6.57;4.25;;;12.80;99.90;;;;;;4971168;28;20027;-80
2023/04/26 08:12:33;;;;;;;4.73;3.93;;;12.80;99.90;;;;;;4974381;28;20453;-80
2023/04/26 08:15:00;;;;;;;5.25;4.50;;;12.70;99.90;;;;;;4973653;28;20043;-80
2023/04/26 08:17:26;;;;;;;5.15;4.38;;;12.70;99.90;;;;;;4974543;28;20069;-81
2023/04/26 08:19:52;;;;;;;4.70;4.18;;;12.80;99.90;;;;;;4973070;28;20027;-85
2023/04/26 08:22:18;;;;;;;4.70;3.38;;;12.70;99.90;;;;;;4972213;28;20019;-83
2023/04/26 08:24:50;;;;;;;4.60;3.47;;;12.70;99.90;;;;;;4960727;28;20026;-79
2023/04/26 08:27:17;;;;;;;5.18;4.10;;;12.70;99.90;;;;;;4971295;28;20039;-79
2023/04/26 08:29:44;;;;;;;3.42;3.13;;;12.80;99.90;;;;;;4967801;28;20026;-79
2023/04/26 08:32:09;;;;;;;7.30;4.72;;;12.80;99.90;;;;;;4953220;28;20027;-79
2023/04/26 08:34:35;;;;;;;4.10;3.70;;;12.80;99.90;;;;;;4975522;28;20033;-78
2023/04/26 08:37:01;;;;;;;3.90;3.50;;;12.80;99.90;;;;;;4974832;28;20022;-79
2023/04/26 08:39:27;;;;;;;5.63;3.72;;;13.00;99.90;;;;;;4968800;28;20102;-80
2023/04/26 08:41:54;;;;;;;5.65;3.83;;;13.10;99.90;;;;;;4974691;28;20045;-79
2023/04/26 08:44:24;;;;;;;4.88;4.35;;;13.20;99.90;;;;;;4975088;28;20015;-79
2023/04/26 08:47:19;;;;;;;3.80;3.45;;;13.30;99.90;;;;;;4963819;28;20043;-79
2023/04/26 08:49:58;;;;;;;4.55;3.95;;;13.50;99.90;;;;;;4958010;28;20090;-80
2023/04/26 08:52:28;;;;;;;5.20;3.95;;;13.50;99.90;;;;;;4967758;28;20098;-79
2023/04/26 08:54:55;;;;;;;5.97;4.15;;;13.40;99.90;;;;;;4959486;28;20123;-78
2023/04/26 08:57:23;;;;;;;6.55;4.70;;;13.50;99.90;;;;;;4963741;28;20022;-77
2023/04/26 08:59:50;;;;;;;5.43;4.25;;;13.60;99.90;;;;;;4959749;28;20015;-78
2023/04/26 09:02:21;;;;;;;6.65;4.88;;;13.90;99.90;;;;;;4964088;28;20031;-80
2023/04/26 09:04:48;;;;;;;7.03;4.28;;;14.00;99.90;;;;;;4968572;28;20050;-78
2023/04/26 09:07:31;;;;;;;5.75;4.10;;;14.30;99.90;;;;;;4971067;28;20129;-79
2023/04/26 09:09:58;;;;;;;6.32;4.30;;;14.30;99.90;;;;;;4970566;28;20117;-79
2023/04/26 09:12:24;;;;;;;6.43;4.45;;;14.20;99.90;;;;;;4971856;28;20023;-81
2023/04/26 09:14:50;;;;;;;5.82;4.85;;;14.00;99.90;;;;;;4970466;28;20027;-79
2023/04/26 09:17:31;;;;;;;5.28;4.65;;;13.90;99.90;;;;;;4970916;28;20527;-79
2023/04/26 09:19:58;;;;;;;6.15;4.55;;;13.80;99.90;;;;;;4967797;28;20023;-80
2023/04/26 09:22:28;;;;;;;5.32;4.82;;;13.60;99.90;;;;;;4970614;28;20018;-79
2023/04/26 09:24:54;;;;;;;4.65;4.25;;;13.50;99.90;;;;;;4953513;28;20481;-79
2023/04/26 09:27:20;;;;;;;5.32;4.60;;;13.50;99.90;;;;;;4970421;28;20046;-78
2023/04/26 09:30:08;;;;;;;5.20;4.70;;;13.50;99.90;;;;;;4954250;28;20038;-78
2023/04/26 09:32:52;;;;;;;5.35;4.85;;;13.60;99.90;;;;;;4949038;28;20070;-77
2023/04/26 09:35:35;;;;;;;4.72;4.25;;;13.50;99.90;;;;;;4972976;28;20109;-77
2023/04/26 09:38:08;;;;;;;7.30;6.25;;;13.40;99.90;;;;;;4970074;28;20027;-78
2023/04/26 09:40:39;;;;;;;7.85;6.93;;;13.40;99.90;;;;;;4955407;28;20054;-81
2023/04/26 09:43:13;;;;;;;6.30;5.70;;;13.40;99.90;;;;;;4971100;28;20488;-80
2023/04/26 09:45:54;;;;;;;8.70;7.38;;;13.60;99.90;;;;;;4972902;28;20092;-80
2023/04/26 09:48:33;;;;;;;8.60;6.50;;;13.50;99.90;;;;;;4973026;28;20504;-80
2023/04/26 09:51:11;;;;;;;6.72;6.05;;;13.50;99.90;;;;;;4972732;28;20023;-82
2023/04/26 09:53:48;;;;;;;8.60;7.00;;;13.40;99.90;;;;;;4972918;28;20015;-81
2023/04/26 09:56:17;;;;;;;7.88;6.72;;;13.10;99.90;;;;;;4972781;28;20113;-81
2023/04/26 09:58:46;;;;;;;9.43;6.88;;;12.90;99.90;;;;;;4972738;28;20023;-81
2023/04/26 10:01:15;;;;;;;9.32;8.23;;;12.70;99.90;;;;;;4955330;28;20899;-78
2023/04/26 10:03:41;;;;;;;10.73;8.93;;;12.70;99.90;;;;;;4972806;28;20125;-79
2023/04/26 10:06:07;;;;;;;9.77;8.65;;;12.80;99.90;;;;;;4986091;28;20042;-78
2023/04/26 10:08:35;;;;;;;10.90;7.10;;;12.80;99.90;;;;;;4964062;28;20035;-79
2023/04/26 10:11:04;;;;;;;7.20;6.50;;;12.80;99.90;;;;;;4963807;28;20531;-78
2023/04/26 10:13:33;;;;;;;7.82;6.47;;;12.90;99.90;;;;;;4964035;28;20023;-78
2023/04/26 10:16:02;;;;;;;8.65;7.13;;;12.90;99.90;;;;;;4967827;28;20030;-76
2023/04/26 10:18:30;;;;;;;9.50;7.25;;;12.90;99.90;;;;;;4963921;28;20581;-78
2023/04/26 10:21:01;;;;;;;9.38;7.70;;;12.90;99.90;;;;;;4966622;28;20034;-78
2023/04/26 10:23:27;;;;;;;11.82;8.27;;;13.00;99.90;;;;;;4962232;28;20143;-78
2023/04/26 10:25:54;;;;;;;12.13;9.23;;;13.00;99.90;;;;;;4965017;28;20039;-79
2023/04/26 10:28:39;;;;;;;14.20;9.02;;;13.10;99.90;;;;;;4963441;28;20786;-78
2023/04/26 10:31:06;;;;;;;10.13;8.63;;;13.30;99.90;;;;;;4965335;28;20388;-81
2023/04/26 10:33:32;;;;;;;12.05;8.98;;;13.40;99.90;;;;;;4955814;28;20126;-78
2023/04/26 10:36:12;;;;;;;12.05;10.43;;;13.70;99.90;;;;;;4975640;28;20026;-80
2023/04/26 10:39:01;;;;;;;10.40;8.85;;;14.00;99.90;;;;;;4964914;28;20037;-79
2023/04/26 10:41:35;;;;;;;9.32;7.28;;;14.20;99.90;;;;;;4960628;28;20501;-80
2023/04/26 10:44:33;;;;;;;11.02;8.18;;;14.30;99.90;;;;;;4963170;28;20085;-78
2023/04/26 10:46:58;;;;;;;9.07;7.35;;;14.40;99.90;;;;;;4955512;28;20058;-80
2023/04/26 10:49:24;;;;;;;8.48;7.55;;;14.70;99.90;;;;;;4955430;28;20097;-78
2023/04/26 10:52:18;;;;;;;10.38;6.82;;;14.80;99.90;;;;;;4959394;28;20034;-81
2023/04/26 10:54:49;;;;;;;6.85;6.13;;;14.90;99.90;;;;;;4958674;28;20050;-80
2023/04/26 10:57:15;;;;;;;10.48;6.88;;;14.70;99.90;;;;;;4942323;28;20057;-79
2023/04/26 11:00:12;;;;;;;8.30;7.03;;;14.60;99.90;;;;;;4957973;28;20067;-79
2023/04/26 11:03:01;;;;;;;9.15;6.38;;;14.60;99.90;;;;;;4959600;28;20437;-80
2023/04/26 11:05:41;;;;;;;12.07;6.68;;;14.70;99.90;;;;;;4966645;28;20512;-80
2023/04/26 11:08:14;;;;;;;7.03;4.90;;;14.90;99.90;;;;;;4962748;28;20402;-77
2023/04/26 11:10:40;;;;;;;6.57;5.40;;;14.70;99.10;;;;;;4970531;28;20050;-80
2023/04/26 11:13:06;;;;;;;5.72;4.90;;;14.70;99.30;;;;;;4944103;29;20050;-79
2023/04/26 11:15:33;;;;;;;8.75;4.65;;;14.60;98.70;;;;;;4962717;28;20066;-80
2023/04/26 11:18:03;;;;;;;5.65;5.05;;;14.70;98.70;;;;;;4961940;28;20023;-80
2023/04/26 11:20:32;;;;;;;9.98;5.40;;;14.80;98.90;;;;;;4967159;28;20057;-79
2023/04/26 11:22:59;;;;;;;7.22;4.88;;;;;;;;;;4961523;28;20027;-81
2023/04/26 11:25:29;;;;;;;4.77;2.77;;;15.30;98.20;;;;;;4941092;28;20027;-82
2023/04/26 11:28:01;;;;;;;4.22;2.83;;;15.40;97.30;;;;;;4961204;28;20265;-80
2023/04/26 11:30:29;;;;;;;3.67;3.03;;;15.50;96.70;;;;;;4941564;28;20031;-80
2023/04/26 11:32:55;;;;;;;;;;;15.60;96.30;;;;;;4968630;28;20384;-79
2023/04/26 11:35:22;;;;;;;3.13;2.30;;;15.60;96.30;;;;;;4956615;28;19913;-81
2023/04/26 11:37:50;;;;;;;2.35;2.15;;;15.70;95.90;;;;;;4972035;28;20019;-80
2023/04/26 11:40:17;;;;;;;4.45;2.85;;;15.70;94.80;;;;;;4974999;28;20113;-78
2023/04/26 11:42:44;;;;;;;4.43;3.90;;;15.70;94.70;;;;;;4957532;28;20030;-79
2023/04/26 11:45:10;;;;;;;7.60;3.50;;;15.70;94.70;;;;;;4974695;28;20026;-80
2023/04/26 11:47:37;;;;;;;10.98;6.85;;;15.80;94.80;;;;;;4960731;28;20038;-79
2023/04/26 11:50:03;;;;;;;5.38;2.80;;;16.00;95.20;;;;;;4960342;28;20069;-78
2023/04/26 11:52:32;;;;;;;3.67;2.70;;;16.10;94.30;;;;;;4962671;28;20030;-78
2023/04/26 11:55:05;;;;;;;4.72;3.17;;;;;;;;;;4968071;28;20023;-79
2023/04/26 11:57:32;;;;;;;4.63;2.80;;;16.20;93.20;;;;;;4972312;28;20023;-78
2023/04/26 12:00:13;;;;;;;4.93;2.70;;;16.30;92.80;;;;;;4957172;28;20392;-79
2023/04/26 12:02:45;;;;;;;8.15;3.38;;;16.30;92.40;;;;;;4948951;28;20105;-77
2023/04/26 12:05:19;;;;;;;5.38;3.53;;;16.40;92.70;;;;;;4969075;28;20078;-79
2023/04/26 12:07:50;;;;;;;6.70;2.83;;;16.40;91.90;;;;;;4964052;28;20057;-81
2023/04/26 12:10:27;;;;;;;5.05;3.55;;;16.20;91.80;;;;;;4969216;28;20014;-77
2023/04/26 12:12:55;;;;;;;5.78;2.63;;;16.00;92.10;;;;;;4971571;28;20393;-78
2023/04/26 12:15:29;;;;;;;7.07;3.03;;;15.70;92.10;;;;;;4966937;28;20038;-77
2023/04/26 12:18:04;;;;;;;4.70;3.03;;;15.40;92.70;;;;;;4968904;28;20070;-79
2023/04/26 12:20:32;;;;;;;4.88;2.83;;;15.20;93.20;;;;;;4967200;28;20022;-78
2023/04/26 12:23:06;;;;;;;4.15;2.60;;;15.10;93.10;;;;;;4968431;28;20062;-78
2023/04/26 12:25:33;;;;;;;4.88;2.63;;;15.00;93.10;;;;;;4972870;28;20017;-77
2023/04/26 12:27:59;;;;;;;;;;;15.00;92.20;;;;;;4970919;28;20034;-80
2023/04/26 12:30:27;;;;;;;2.85;2.20;;;14.90;92.10;;;;;;4970543;28;19906;-80
2023/04/26 12:32:53;;;;;;;5.10;2.95;;;14.70;92.00;;;;;;4975560;28;20023;-81
2023/04/26 12:35:19;;;;;;;3.75;2.67;;;14.60;92.60;;;;;;4973861;28;20365;-77
2023/04/26 12:37:46;;;;;;;5.93;3.45;;;14.70;92.70;;;;;;4956534;28;20114;-77
2023/04/26 12:40:12;;;;;;;3.17;2.70;;;14.90;91.60;;;;;;4972299;28;20038;-79
2023/04/26 12:42:38;;;;;;;4.43;2.78;;;15.00;91.20;;;;;;4968019;28;20027;-77
2023/04/26 12:45:05;;;;;;;4.07;2.95;;;15.30;90.80;;;;;;4967437;28;20554;-77
2023/04/26 12:47:31;;;;;;;9.23;3.57;;;15.60;90.50;;;;;;4968945;28;20038;-78
2023/04/26 12:49:59;;;;;;;5.20;2.80;;;15.80;89.90;;;;;;4964474;28;20484;-75